Station: Davey Gorge (Pws)  

  Atmospheric Gas Attenuation - ITU Rec 676-11   ----------------- dB/100km -----------------
Date Time Temp RH % AH g/m3 Dew Point Wind Direction Speed kph Gust kph Barometer mB Rainfall Since 9am 24GHz 47GHz 76GHz 122GHz 134GHz 241GHz
08/05 12:00 11 85 8.51 8.6 19 22 1013.1 0.2 19.5 26.6 40.9 107.2 100.8 346.5
08/05 11:30 11.2 83 8.41 8.5 20 26 1013.1 0.2 19.3 26.3 40.3 105.9 99.2 340.8
08/05 11:00 10.3 91 8.72 8.9 20 24 1013.1 0.2 20.0 27.1 42.1 110.6 104.6 359.8
08/05 10:30 10.9 83 8.26 8.1 26 30 1013.1 0 19.0 26.2 39.9 104.6 97.5 335.0
08/05 10:00 11.1 78 7.86 7.5 26 28 1013.1 0 18.1 25.5 38.1 100.0 91.9 315.3
08/05 09:30 10.9 78 7.76 7.3 22 30 1013.1 0 17.9 25.4 37.8 99.2 90.8 311.4
08/05 09:00 10.1 82 7.76 7.2 22 28 1013.1 24.8 18.0 25.6 38.2 100.2 91.7 314.6
08/05 08:30 9.6 90 8.25 8.1 19 22 1013.1 24.8 19.0 26.6 40.5 106.3 99.0 340.1
08/05 08:00 9.3 91 8.18 7.9 22 26 1013.1 24.6 18.9 26.5 40.3 105.9 98.5 338.1
08/05 07:30 9.3 85 7.64 7 19 24 1013.1 24 17.7 25.6 38.1 99.9 91.1 312.2
08/05 07:00 9.7 78 7.19 6.1 28 32 1013.1 23.8 16.8 24.8 36.1 94.5 84.6 289.5
08/05 06:30 9.5 82 7.47 6.6 28 33 1013.1 23.6 17.4 25.3 37.3 97.8 88.5 303.4
08/05 06:00 9.9 77 7.19 6.1 26 35 1013.1 23.4 16.7 24.7 36.0 94.3 84.4 288.8
08/05 05:30 9.6 84 7.7 7.1 30 41 1013.1 23.4 17.9 25.6 38.2 100.2 91.5 313.8
08/05 05:00 9.5 81 7.38 6.4 20 26 1013.1 23.4 17.2 25.1 36.9 96.8 87.3 299.1
08/05 04:30 9.3 85 7.64 7 30 37 1013.1 23.2 17.7 25.6 38.1 99.9 91.1 312.2
08/05 04:00 10.2 79 7.52 6.8 28 33 1013.1 23 17.4 25.2 37.2 97.4 88.4 303.0
08/05 03:30 9.9 81 7.56 6.9 20 33 1013.1 23 17.5 25.3 37.5 98.2 89.3 306.0
08/05 03:00 9.4 85 7.69 7.1 35 48 1013.1 22.8 17.8 25.7 38.3 100.3 91.6 314.1
08/05 02:30 10.3 81 7.76 7.2 28 41 1013.1 22.4 18.0 25.5 38.1 99.9 91.5 313.8
08/05 02:00 9.6 87 7.97 7.6 28 35 1013.1 22.4 18.4 26.1 39.3 103.1 95.2 326.7
08/05 01:30 10.2 82 7.81 7.3 30 46 1013.1 20.4 18.1 25.6 38.4 100.6 92.3 316.6
08/05 01:00 10.1 82 7.76 7.2 33 48 1013.1 20 18.0 25.6 38.2 100.2 91.7 314.6
08/05 00:30 10.6 87 8.49 8.5 32 39 1013.1 19.4 19.5 26.7 41.0 107.6 101.0 347.3
08/05 00:00 10.4 86 8.29 8.1 30 43 1013.1 18.8 19.1 26.4 40.2 105.6 98.6 338.6
07/05 23:30 11.7 75 7.85 7.4 28 37 1013.1 16.8 18.1 25.3 37.8 99.1 91.0 312.4
07/05 23:00 10.9 83 8.26 8.1 39 48 1013.1 16.6 19.0 26.2 39.9 104.6 97.5 335.0
07/05 22:30 11.2 86 8.72 8.9 35 43 1013.1 15.6 20.0 26.9 41.6 109.3 103.4 355.7
07/05 22:00 11.6 83 8.63 8.8 37 48 1013.1 14.2 19.8 26.6 41.0 107.7 101.6 349.5
07/05 21:30 12.4 79 8.63 8.9 37 44 1013.1 12.2 19.7 26.3 40.6 106.6 100.6 346.0
07/05 21:00 12.5 81 8.91 9.4 35 50 1013.1 12.2 20.3 26.8 41.7 109.6 104.2 358.8
07/05 20:30 12.4 82 8.96 9.5 37 57 1013.1 12 20.4 26.9 42.0 110.3 105.1 361.6
07/05 20:00 12.4 81 8.85 9.3 41 54 1013.1 11.6 20.2 26.7 41.5 109.1 103.6 356.4
07/05 19:30 11.9 85 9 9.4 43 56 1013.1 11.2 20.5 27.1 42.4 111.4 106.3 365.9
07/05 19:00 10.9 90 8.95 9.3 22 28 1013.1 10.8 20.5 27.3 42.8 112.3 107.0 368.2
07/05 18:30 10.1 90 8.51 8.6 22 28 1013.1 9 19.6 26.8 41.3 108.5 102.0 350.5
07/05 18:00 9.7 89 8.21 8 28 37 1013.1 7.4 18.9 26.5 40.3 105.7 98.4 337.8
07/05 17:30 9.2 88 7.86 7.3 30 39 1013.1 6.6 18.2 26.0 39.1 102.4 94.2 323.1
07/05 17:00 8.8 86 7.49 6.6 22 30 1013.1 6 17.4 25.5 37.7 98.9 89.6 307.0
07/05 16:30 8.2 88 7.37 6.3 17 20 1013.1 4.2 17.2 25.5 37.5 98.3 88.7 303.7
07/05 16:00 8 84 6.95 5.4 19 22 1013.1 2.6 16.3 24.9 35.9 93.9 83.2 284.5
07/05 15:30 8.1 84 6.99 5.5 15 22 1013.1 1.6 16.4 24.9 36.0 94.3 83.6 286.0
07/05 15:00 8.1 82 6.83 5.3 15 20 1013.1 1.2 16.0 24.6 35.3 92.5 81.5 278.5
07/05 14:30 8.4 76 6.45 4.5 15 19 1013.1 0.8 15.2 23.9 33.7 88.1 76.2 259.9
07/05 14:00 8.9 67 5.87 3.1 13 19 1013.1 0.8 14.0 22.9 31.2 81.5 68.2 232.1
07/05 13:30 8.7 66 5.71 2.7 15 20 1013.1 0.6 13.6 22.7 30.7 80.1 66.4 225.6
07/05 13:00 8.7 63 5.45 2.2 13 17 1013.1 0.6 13.1 22.3 29.7 77.4 63.1 214.1
07/05 12:30 8.6 63 5.42 2 13 20 1013.1 0.6 13.0 22.3 29.6 77.2 62.8 213.1
07/05 12:00 7.3 80 6.32 4.1 6 9 1013.1 0.6 15.0 24.0 33.6 88.0 75.5 257.5
07/05 11:30 6.6 92 6.95 5.4 9 11 1013.1 0.6 16.4 25.2 36.5 95.6 84.7 289.7
07/05 11:00 5.9 93 6.71 4.8 7 9 1013.1 0.6 15.9 25.0 35.8 93.8 82.2 280.7
07/05 10:30 6.2 89 6.55 4.5 7 9 1013.1 0.4 15.5 24.7 35.1 91.7 79.7 272.0
07/05 10:00 7.2 83 6.52 4.6 2 6 1013.1 0.4 15.4 24.4 34.5 90.2 78.3 267.2
07/05 09:30 6.1 73 5.34 1.6 15 20 1013.1 0.4 12.9 22.8 30.2 78.9 63.8 216.2
07/05 09:00 6 81 5.88 3 6 9 1013.1 20.4 14.1 23.7 32.4 84.7 70.9 241.3
07/05 08:30 5.8 79 5.66 2.4 15 22 1013.1 20 13.6 23.4 31.6 82.5 68.2 231.7
07/05 08:00 3.9 92 5.82 2.8 7 9 1013.1 19 14.0 24.1 33.0 86.3 72.1 244.9
07/05 07:30 3.4 95 5.81 2.7 9 9 1013.1 18.8 14.0 24.2 33.2 86.8 72.4 246.0
07/05 07:00 3.4 96 5.87 2.8 6 9 1013.1 18.8 14.2 24.3 33.5 87.4 73.2 248.9
07/05 06:30 3.2 96 5.79 2.6 4 7 1013.1 18.8 14.0 24.3 33.2 86.8 72.3 245.7
07/05 06:00 3.4 95 5.81 2.7 11 13 1013.1 18.8 14.0 24.2 33.2 86.8 72.4 246.0
07/05 05:30 3.5 94 5.79 2.7 6 9 1013.1 18.8 14.0 24.2 33.1 86.4 72.1 244.8
07/05 05:00 4 94 5.98 3.1 7 9 1013.1 18.8 14.4 24.4 33.7 88.0 74.2 252.2
07/05 04:30 4.5 93 6.12 3.5 7 9 1013.1 18.8 14.7 24.5 34.0 88.9 75.6 257.3
07/05 04:00 3.9 95 6 3.2 7 9 1013.1 18.8 14.4 24.4 33.8 88.3 74.5 253.5
07/05 03:30 4.3 94 6.1 3.5 6 19 1013.1 18.8 14.6 24.5 34.0 88.9 75.5 257.0
07/05 03:00 4.9 93 6.28 3.9 9 13 1013.1 17.4 15.0 24.6 34.5 90.2 77.4 263.6
07/05 02:30 5.4 90 6.28 3.9 11 15 1013.1 15.8 15.0 24.5 34.3 89.7 76.9 261.9
07/05 02:00 5 89 6.05 3.3 17 24 1013.1 15.6 14.5 24.2 33.5 87.6 74.2 252.3
07/05 01:30 5.8 89 6.38 4.1 7 11 1013.1 15.4 15.2 24.5 34.5 90.3 77.8 265.3
07/05 01:00 6.2 81 5.96 3.2 9 17 1013.1 15.4 14.3 23.7 32.7 85.3 71.8 244.3
07/05 00:30 6.2 85 6.25 3.8 22 28 1013.1 15.2 14.9 24.2 33.8 88.4 75.7 257.9
07/05 00:00 7.4 77 6.13 3.7 11 13 1013.1 15 14.6 23.7 32.8 85.8 72.9 248.4
06/05 23:30 7.3 78 6.17 3.8 15 17 1013.1 15 14.7 23.8 33.0 86.4 73.6 250.6
06/05 23:00 6.9 85 6.55 4.5 11 13 1013.1 15 15.5 24.5 34.7 90.9 79.0 269.6
06/05 22:30 6.3 93 6.89 5.2 11 17 1013.1 14.8 16.3 25.2 36.4 95.3 84.2 287.9
06/05 22:00 7.1 84 6.55 4.6 6 11 1013.1 13.8 15.5 24.4 34.7 90.7 78.8 268.9
06/05 21:30 6.5 90 6.75 5 2 4 1013.1 12.4 15.9 24.9 35.7 93.5 82.1 280.5
06/05 21:00 6.6 95 7.18 5.9 11 17 1013.1 11.6 16.9 25.6 37.5 98.2 87.9 300.7
06/05 20:30 6.5 96 7.2 5.9 7 11 1013.1 10.2 16.9 25.7 37.6 98.6 88.3 302.1
06/05 20:00 6.6 94 7.1 5.7 6 7 1013.1 10.2 16.7 25.5 37.1 97.3 86.8 296.9
06/05 19:30 6.7 91 6.92 5.4 2 4 1013.1 10 16.3 25.2 36.4 95.2 84.2 287.9
06/05 19:00 6.7 96 7.3 6.1 4 7 1013.1 8.6 17.1 25.8 37.9 99.4 89.4 306.2
06/05 18:30 6.7 96 7.3 6.1 4 6 1013.1 8.2 17.1 25.8 37.9 99.4 89.4 306.2
06/05 18:00 6.8 96 7.35 6.2 2 4 1013.1 7.6 17.2 25.9 38.1 99.9 90.0 308.2
06/05 17:30 6.9 95 7.32 6.1 4 6 1013.1 7.6 17.2 25.8 37.9 99.4 89.5 306.3
06/05 17:00 7 94 7.29 6.1 6 7 1013.1 7.4 17.1 25.7 37.8 98.9 89.0 304.5
06/05 16:30 7.2 94 7.38 6.3 7 9 1013.1 6.6 17.3 25.8 38.0 99.7 90.0 308.1
06/05 16:00 7.6 90 7.25 6.1 4 7 1013.1 6.6 17.0 25.5 37.3 97.7 87.7 300.3
06/05 15:30 7.9 81 6.66 4.8 9 15 1013.1 5.4 15.7 24.4 34.8 90.9 79.4 271.3
06/05 15:00 8.2 85 7.12 5.8 6 9 1013.1 4.2 16.7 25.1 36.5 95.6 85.3 291.8
06/05 14:30 8.7 82 7.09 5.8 4 7 1013.1 3.8 16.6 24.9 36.1 94.6 84.3 288.5
06/05 14:00 9 74 6.53 4.7 11 15 1013.1 3.8 15.4 23.9 33.8 88.3 76.6 261.6
06/05 13:30 9.3 85 7.64 7 13 15 1013.1 3.2 17.7 25.6 38.1 99.9 91.1 312.2
06/05 13:00 10 84 7.9 7.5 17 26 1013.1 2.8 18.3 25.8 38.8 101.8 93.7 321.7
06/05 12:30 10.6 74 7.22 6.1 24 28 1013.1 2.8 16.8 24.6 35.8 93.7 84.0 287.6
06/05 12:00 10.1 81 7.66 7 24 33 1013.1 2.8 17.7 25.4 37.8 99.1 90.4 309.9
06/05 11:30 10.4 86 8.29 8.1 26 33 1013.1 2.4 19.1 26.4 40.2 105.6 98.6 338.6
06/05 11:00 11.2 87 8.82 9.2 28 41 1013.1 1.8 20.2 27.0 42.0 110.4 104.8 360.5
06/05 09:30 13.7 78 9.24 9.9 35 46 1013.1 0 21.0 27.0 42.4 111.5 107.1 368.9

Last Refresh: 08-May-2026 12:09:23

Bureau of Meteorology